Pagina principale
METAR-TAF:

METAR-TAF

Aeroporti :

Aeroporto di Chambéry Savoia

Chambery / Aix-Les-Bains, Francia

latitudine: 45-39N, longitudine: 005-53E, altezza: 235 m

Osservazione

Il bollettino è stato emesso 28 minuti fa, alle 17:00 UTC
Vento 4 kt da nord/nord-ovest
Temperature 25°C
Umidità 34%
Pressione 1013 hPa
Visibilità 10 km o più
nessuna nube inferiore a 1500 m e nessun cumulonembo

METAR: LFLB 311700Z AUTO 33004KT CAVOK 25/08 Q1013 TEMPO FEW060CB

Ora: 19:28 (17:28 UTC)

Previsione

Il bollettino è stato emesso 6 ore e 28 minuti fa, alle 11:00 UTC
Previsione valida dal 31 alle 12 UTC al 01 alle 12 UTC
Vento 8 kt da nord/nord-ovest
Visibilità 10 km o più
nessuna nube inferiore a 1500 m e nessun cumulonembo
Probabilità 30% :
Temporaneamente
dal 31 alle 14 UTC al 31 alle 18 UTC
Poco nuvoloso ad un'altezza di 6000 ft, Cumulonembo.

TAF: LFLB 311100Z 3112/0112 34008KT CAVOK PROB30 TEMPO 3114/3118 FEW060CB

Osservazioni e previsioni meteorologiche di più di 4000 aeroporti (messaggi METAR e TAF).

Le stazioni disponibili sono rappresentate dai dischi gialli e rossi sulla carta.

Puntare il mouse per vedere il nome della stazione.

Clicca sopra per visualizzare le osservazioni e previsioni meteorologiche.

Per cambiare la mappa : fare clic sui pulsanti verdi con una croce nera per ingrandire, il pulsante verde con un trattino per diminuire, o sulla freccia verde per le mappe adiacenti.


METAR-TAF: